Airport ID:KS21
Update Time (UTC):29/09/2022 12:00
Wind Speed (Knots):10
Wind Direction (Magnetic):170
Temperature (°C):9
Dew Point (°C):6
Humidity (%):79
Altimeter (inHg):30.19
Density Altitude (Feet):
Visibility:10+
Clouds (Hundreds of feet):BKN023 BKN030 OVC047
Present Weather:
METAR:METAR KS21 291155Z AUTO 19009KT 10SM BKN023 OVC047 09/06 A3019 RMK AO2

The data displayed is for advisory purposes only and is not to be used for flight planning or operations.